Time;durP1;ratioP1;P1;durP2;ratioP2;P2;SDS_P1;SDS_P2;PMS_P1;PMS_P2;Temp;Humidity;BMP_temperature;BMP_pressure;BME280_temperature;BME280_humidity;BME280_pressure;Samples;Min_cycle;Max_cycle;Signal;HPM_P1;HPM_P2
2022/01/02 00:04:30;;;;;;;4.10;1.90;;;23.30;61.90;;;;;;220320;1267;22693;-56
2022/01/02 00:09:37;;;;;;;5.70;1.80;;;23.30;62.00;;;;;;220770;1267;22765;-57
2022/01/02 00:14:46;;;;;;;5.30;2.20;;;23.30;62.40;;;;;;220427;1267;22564;-58
2022/01/02 00:20:08;;;;;;;5.10;2.10;;;23.20;62.30;;;;;;220631;1268;25054;-56
2022/01/02 00:25:27;;;;;;;6.60;2.30;;;23.20;62.50;;;;;;220282;1267;25334;-57
2022/01/02 00:30:33;;;;;;;7.90;2.70;;;23.20;62.70;;;;;;220489;1268;24205;-55
2022/01/02 00:35:39;;;;;;;6.60;2.30;;;23.10;62.50;;;;;;220398;1267;23384;-54
2022/01/02 00:40:46;;;;;;;6.20;2.00;;;23.10;62.60;;;;;;220684;1267;22577;-60
2022/01/02 00:45:52;;;;;;;7.50;2.20;;;23.10;62.60;;;;;;220491;1268;22613;-58
2022/01/02 00:51:33;;;;;;;5.40;2.30;;;23.00;62.60;;;;;;220243;1268;23025;-57
2022/01/02 00:56:46;;;;;;;7.00;2.50;;;23.00;62.60;;;;;;220216;1268;26470;-56
2022/01/02 01:01:58;;;;;;;6.90;2.60;;;23.00;63.00;;;;;;220080;1265;22643;-56
2022/01/02 01:07:05;;;;;;;8.00;2.70;;;22.90;63.20;;;;;;220179;1265;22554;-57
2022/01/02 01:12:10;;;;;;;8.60;3.50;;;22.90;64.80;;;;;;219984;1268;26931;-55
2022/01/02 01:17:15;;;;;;;8.30;3.50;;;22.90;65.30;;;;;;220130;1267;24364;-56
2022/01/02 01:22:21;;;;;;;7.00;3.20;;;22.80;64.60;;;;;;220241;1268;22549;-57
2022/01/02 01:27:28;;;;;;;9.20;3.60;;;22.80;64.40;;;;;;220201;1267;22567;-57
2022/01/02 01:32:31;;;;;;;7.30;3.30;;;22.70;64.20;;;;;;220071;1268;24351;-55
2022/01/02 01:37:36;;;;;;;7.70;3.50;;;22.70;63.90;;;;;;220202;1268;24317;-56
2022/01/02 01:42:44;;;;;;;8.50;3.60;;;22.70;63.80;;;;;;220080;1265;25437;-57
2022/01/02 01:47:55;;;;;;;7.30;3.40;;;22.70;63.50;;;;;;220562;1265;24316;-57
2022/01/02 01:53:03;;;;;;;6.90;3.00;;;22.60;63.40;;;;;;220373;1265;22547;-55
2022/01/02 01:58:15;;;;;;;6.90;3.50;;;22.60;63.30;;;;;;220566;1265;24266;-56
2022/01/02 02:03:21;;;;;;;6.90;3.60;;;22.60;63.20;;;;;;220357;1265;25506;-59
2022/01/02 02:08:27;;;;;;;7.00;3.40;;;22.60;63.10;;;;;;220353;1265;22698;-55
2022/01/02 02:13:38;;;;;;;7.70;3.30;;;22.60;63.10;;;;;;220270;1267;25567;-58
2022/01/02 02:18:43;;;;;;;8.60;3.60;;;22.50;62.90;;;;;;220237;1265;24229;-57
2022/01/02 02:23:51;;;;;;;6.50;3.60;;;22.50;62.80;;;;;;220307;1265;24230;-61
2022/01/02 02:28:55;;;;;;;7.20;3.30;;;22.50;62.70;;;;;;220396;1265;22557;-57
2022/01/02 02:33:59;;;;;;;6.80;3.70;;;22.50;62.60;;;;;;220307;1264;22562;-58
2022/01/02 02:39:03;;;;;;;8.70;3.50;;;22.40;62.50;;;;;;220241;1265;22598;-56
2022/01/02 02:44:18;;;;;;;6.60;3.60;;;22.40;62.30;;;;;;220669;1265;22485;-56
2022/01/02 02:49:21;;;;;;;7.70;3.70;;;22.40;62.30;;;;;;220392;1265;22547;-56
2022/01/02 02:54:32;;;;;;;7.10;3.80;;;22.40;62.20;;;;;;220399;1265;22576;-56
2022/01/02 02:59:38;;;;;;;7.40;3.90;;;22.40;62.30;;;;;;220270;1265;22532;-59
2022/01/02 03:04:43;;;;;;;6.90;3.30;;;22.40;62.20;;;;;;220242;1265;24369;-55
2022/01/02 03:09:51;;;;;;;6.30;3.70;;;22.30;62.10;;;;;;220632;1265;22562;-57
2022/01/02 03:14:57;;;;;;;6.20;3.00;;;22.40;62.10;;;;;;220435;1265;22538;-57
2022/01/02 03:20:02;;;;;;;6.20;3.20;;;22.70;61.70;;;;;;220196;1265;24206;-57
2022/01/02 03:25:13;;;;;;;7.20;3.60;;;23.00;60.60;;;;;;220453;1265;24377;-56
2022/01/02 03:30:18;;;;;;;7.50;3.60;;;23.20;60.20;;;;;;220365;1265;22567;-55
2022/01/02 03:35:22;;;;;;;6.60;4.00;;;23.40;59.50;;;;;;220353;1265;24224;-56
2022/01/02 03:40:26;;;;;;;6.50;3.40;;;23.50;59.10;;;;;;220216;1265;23043;-56
2022/01/02 03:45:30;;;;;;;6.30;3.80;;;23.50;58.90;;;;;;220343;1265;22552;-57
2022/01/02 03:50:34;;;;;;;6.90;4.10;;;23.50;58.80;;;;;;220345;1266;22522;-59
2022/01/02 03:55:39;;;;;;;6.20;3.70;;;23.60;58.80;;;;;;220389;1265;25853;-57
2022/01/02 04:00:43;;;;;;;5.90;3.60;;;23.60;58.70;;;;;;220333;1265;22525;-56
2022/01/02 04:05:47;;;;;;;6.10;3.30;;;23.60;58.60;;;;;;220513;1265;23031;-55
2022/01/02 04:10:51;;;;;;;7.00;3.50;;;23.60;58.40;;;;;;220279;1266;22546;-57
2022/01/02 04:15:56;;;;;;;5.90;2.90;;;23.60;58.30;;;;;;220719;1265;23885;-56
2022/01/02 04:21:04;;;;;;;9.20;3.80;;;23.70;58.20;;;;;;220287;1265;25429;-55
2022/01/02 04:26:09;;;;;;;6.00;3.60;;;23.70;58.20;;;;;;220206;1265;25344;-55
2022/01/02 04:31:15;;;;;;;7.10;4.20;;;23.70;58.10;;;;;;220366;1265;22716;-56
2022/01/02 04:36:19;;;;;;;6.00;3.50;;;23.70;58.20;;;;;;220439;1265;25470;-55
2022/01/02 04:41:23;;;;;;;6.30;3.80;;;23.70;58.00;;;;;;220522;1265;22531;-55
2022/01/02 04:46:27;;;;;;;9.50;3.70;;;23.70;58.60;;;;;;220684;1265;23069;-55
2022/01/02 04:51:31;;;;;;;5.60;3.40;;;23.70;57.80;;;;;;220143;1272;22532;-55
2022/01/02 04:56:35;;;;;;;6.20;3.40;;;23.70;57.70;;;;;;220111;1268;23281;-57
2022/01/02 05:01:39;;;;;;;5.10;3.40;;;23.70;57.60;;;;;;220389;1265;23056;-55
2022/01/02 05:06:43;;;;;;;5.60;3.30;;;23.70;57.50;;;;;;220524;1265;22582;-57
2022/01/02 05:11:47;;;;;;;5.70;3.60;;;23.80;58.10;;;;;;220581;1265;22553;-57
2022/01/02 05:16:51;;;;;;;5.30;3.70;;;23.80;57.50;;;;;;220333;1265;22554;-56
2022/01/02 05:21:55;;;;;;;7.10;3.40;;;23.80;57.50;;;;;;220511;1265;22480;-57
2022/01/02 05:26:59;;;;;;;7.60;3.40;;;23.80;57.40;;;;;;220280;1265;22550;-57
2022/01/02 05:32:03;;;;;;;5.60;3.30;;;23.80;57.50;;;;;;220150;1265;22576;-58
2022/01/02 05:37:07;;;;;;;5.60;3.00;;;23.70;57.40;;;;;;220097;1268;22561;-56
2022/01/02 05:42:11;;;;;;;6.50;3.50;;;23.80;57.40;;;;;;220447;1265;22550;-58
2022/01/02 05:47:15;;;;;;;5.70;3.10;;;23.80;57.50;;;;;;220285;1265;24314;-57
2022/01/02 05:52:19;;;;;;;6.20;3.30;;;23.80;57.40;;;;;;220411;1265;23890;-58
2022/01/02 05:57:23;;;;;;;7.30;3.60;;;23.80;57.40;;;;;;220139;1265;286650;-57
2022/01/02 06:02:27;;;;;;;5.40;3.50;;;23.80;57.20;;;;;;220445;1265;25583;-55
2022/01/02 06:07:31;;;;;;;6.90;3.50;;;23.80;57.10;;;;;;220364;1265;22883;-56
2022/01/02 06:12:35;;;;;;;5.50;3.50;;;23.80;57.40;;;;;;220476;1265;22570;-56
2022/01/02 06:17:40;;;;;;;6.60;3.30;;;23.80;57.00;;;;;;220393;1265;25256;-55
2022/01/02 06:22:44;;;;;;;5.90;3.00;;;23.80;56.90;;;;;;220347;1268;24395;-56
2022/01/02 06:27:49;;;;;;;5.90;3.10;;;23.80;56.90;;;;;;220603;1265;22746;-59
2022/01/02 06:32:55;;;;;;;6.70;3.50;;;23.80;56.90;;;;;;220236;1265;22543;-59
2022/01/02 06:38:20;;;;;;;4.80;3.20;;;23.80;56.80;;;;;;220395;1268;22556;-56
2022/01/02 06:43:27;;;;;;;4.90;3.10;;;23.80;56.90;;;;;;220347;1265;24421;-56
2022/01/02 06:48:31;;;;;;;4.60;3.40;;;23.80;56.80;;;;;;220271;1265;25526;-56
2022/01/02 06:53:35;;;;;;;6.80;3.60;;;23.80;56.90;;;;;;220640;1265;22549;-57
2022/01/02 06:58:40;;;;;;;4.70;3.10;;;23.80;56.60;;;;;;220427;1264;22566;-58
2022/01/02 07:03:45;;;;;;;4.60;2.90;;;23.80;56.60;;;;;;220423;1265;26692;-56
2022/01/02 07:08:54;;;;;;;4.90;3.30;;;23.80;57.10;;;;;;220481;1265;25630;-56
2022/01/02 07:13:57;;;;;;;5.70;3.30;;;23.80;56.60;;;;;;220510;1265;24514;-55
2022/01/02 07:19:01;;;;;;;4.70;2.70;;;23.80;56.50;;;;;;220344;1265;22547;-57
2022/01/02 07:24:04;;;;;;;4.10;2.70;;;23.80;56.50;;;;;;220194;1268;24398;-57
2022/01/02 07:29:08;;;;;;;4.60;3.00;;;23.70;56.70;;;;;;220464;1265;24320;-57
2022/01/02 07:34:12;;;;;;;5.40;2.90;;;23.70;56.60;;;;;;220467;1265;22546;-56
2022/01/02 07:39:16;;;;;;;4.90;3.10;;;23.70;56.70;;;;;;220215;1265;22549;-57
2022/01/02 07:44:21;;;;;;;5.30;3.10;;;23.60;56.80;;;;;;220576;1265;22690;-57
2022/01/02 07:49:25;;;;;;;4.50;2.70;;;23.50;57.00;;;;;;220668;1267;24269;-57
2022/01/02 07:54:30;;;;;;;6.70;3.20;;;23.50;57.10;;;;;;220551;1265;22564;-55
2022/01/02 07:59:34;;;;;;;5.00;2.90;;;23.50;57.10;;;;;;220301;1265;22541;-55
2022/01/02 08:05:04;;;;;;;5.80;2.90;;;23.30;57.30;;;;;;220121;1270;22537;-57
2022/01/02 08:10:15;;;;;;;6.60;2.90;;;23.30;57.40;;;;;;220354;1268;22875;-57
2022/01/02 08:15:18;;;;;;;4.40;2.80;;;23.20;57.60;;;;;;220474;1267;22671;-56
2022/01/02 08:20:24;;;;;;;4.50;2.60;;;23.20;57.80;;;;;;220347;1265;22558;-60
2022/01/02 08:25:27;;;;;;;4.70;2.80;;;23.20;58.30;;;;;;220422;1265;24459;-56
2022/01/02 08:30:31;;;;;;;6.40;3.10;;;23.10;58.20;;;;;;220298;1267;22558;-54
2022/01/02 08:35:35;;;;;;;7.40;2.70;;;23.10;58.10;;;;;;220523;1265;25437;-57
2022/01/02 08:40:41;;;;;;;3.90;2.50;;;23.00;58.20;;;;;;220309;1265;22990;-56
2022/01/02 08:45:45;;;;;;;7.10;3.00;;;23.00;58.40;;;;;;220385;1265;22639;-61
2022/01/02 08:50:49;;;;;;;5.00;2.70;;;23.00;58.50;;;;;;220462;1265;22537;-55
2022/01/02 08:55:54;;;;;;;5.00;2.70;;;22.90;58.40;;;;;;220212;1265;25512;-57
2022/01/02 09:01:02;;;;;;;7.60;3.20;;;22.90;58.20;;;;;;219856;1265;24357;-58
2022/01/02 09:06:09;;;;;;;4.20;2.90;;;22.90;58.10;;;;;;219928;1267;22664;-57
2022/01/02 09:11:12;;;;;;;4.40;2.70;;;22.80;57.90;;;;;;219903;1265;24265;-57
2022/01/02 09:16:18;;;;;;;8.20;2.70;;;22.80;58.00;;;;;;220144;1265;26575;-56
2022/01/02 09:21:24;;;;;;;5.10;3.30;;;22.70;58.00;;;;;;219993;1265;25627;-57
2022/01/02 09:26:30;;;;;;;6.00;3.30;;;22.70;58.00;;;;;;220168;1268;22553;-55
2022/01/02 09:31:37;;;;;;;5.30;3.00;;;22.60;58.00;;;;;;220037;1265;25275;-58
2022/01/02 09:36:45;;;;;;;5.10;2.80;;;22.60;57.90;;;;;;220259;1267;22607;-59
2022/01/02 09:41:49;;;;;;;5.20;2.60;;;22.60;58.00;;;;;;220079;1265;22534;-54
2022/01/02 09:46:57;;;;;;;4.50;2.50;;;22.60;58.30;;;;;;220322;1265;22532;-54
2022/01/02 09:52:07;;;;;;;4.70;2.70;;;22.60;58.40;;;;;;220024;1265;22814;-55
2022/01/02 09:57:14;;;;;;;7.40;2.90;;;22.60;59.20;;;;;;220230;1265;24677;-56
2022/01/02 10:02:53;;;;;;;7.20;2.50;;;22.60;58.50;;;;;;219976;1265;22618;-57
2022/01/02 10:07:58;;;;;;;7.60;2.80;;;22.50;58.80;;;;;;220088;1265;22662;-56
2022/01/02 10:13:04;;;;;;;9.10;3.40;;;22.50;59.00;;;;;;219947;1268;22569;-57
2022/01/02 10:18:15;;;;;;;10.40;3.40;;;22.50;59.30;;;;;;219600;1265;24422;-56
2022/01/02 10:23:23;;;;;;;5.20;2.90;;;22.50;59.10;;;;;;221158;1264;24316;-55
2022/01/02 10:28:49;;;;;;;5.60;3.50;;;22.50;59.40;;;;;;220033;1265;25542;-57
2022/01/02 10:34:01;;;;;;;7.60;2.80;;;22.60;59.40;;;;;;220282;1265;22721;-56
2022/01/02 10:39:07;;;;;;;7.20;3.00;;;22.60;59.30;;;;;;220122;1267;24370;-57
2022/01/02 10:44:20;;;;;;;11.60;5.70;;;22.60;59.10;;;;;;220108;1264;23051;-57
2022/01/02 10:49:23;;;;;;;10.80;4.70;;;22.60;59.00;;;;;;220397;1265;23816;-55
2022/01/02 10:54:33;;;;;;;10.00;5.00;;;22.60;59.20;;;;;;220513;1265;22669;-55
2022/01/02 10:59:39;;;;;;;9.80;5.30;;;22.60;58.90;;;;;;219918;1267;22567;-57
2022/01/02 11:05:03;;;;;;;12.40;5.40;;;22.50;58.80;;;;;;220272;1265;22685;-55
2022/01/02 11:10:09;;;;;;;14.60;5.00;;;22.60;59.10;;;;;;220084;1265;22566;-58
2022/01/02 11:15:18;;;;;;;20.30;5.60;;;22.50;58.90;;;;;;219909;1265;24358;-56
2022/01/02 11:20:25;;;;;;;25.90;5.60;;;22.50;58.90;;;;;;220464;1265;22583;-57
2022/01/02 11:25:41;;;;;;;14.70;5.20;;;22.40;58.30;;;;;;219863;1265;24384;-53
2022/01/02 11:31:14;;;;;;;16.20;5.20;;;22.50;58.60;;;;;;220039;1265;25429;-54
2022/01/02 11:36:22;;;;;;;14.30;4.40;;;22.50;58.70;;;;;;219876;1264;24227;-55
2022/01/02 11:41:49;;;;;;;11.80;4.80;;;22.60;58.40;;;;;;219868;1264;25214;-54
2022/01/02 11:46:58;;;;;;;22.80;5.40;;;22.50;58.50;;;;;;219925;1265;25318;-56
2022/01/02 11:52:12;;;;;;;19.30;4.70;;;22.40;58.60;;;;;;220521;1265;22545;-57
2022/01/02 11:57:15;;;;;;;17.40;5.80;;;22.30;58.60;;;;;;219961;1265;23127;-58
2022/01/02 12:02:25;;;;;;;13.50;4.50;;;22.40;58.60;;;;;;219930;1265;24358;-58
2022/01/02 12:07:40;;;;;;;13.60;5.20;;;22.30;58.60;;;;;;221256;1264;26510;-55
2022/01/02 12:12:56;;;;;;;10.00;4.20;;;22.30;58.80;;;;;;219857;1265;22545;-56
2022/01/02 12:18:29;;;;;;;16.00;4.30;;;22.30;58.50;;;;;;220087;1265;24524;-56
2022/01/02 12:23:40;;;;;;;15.60;4.60;;;22.30;58.60;;;;;;220012;1265;22539;-57
2022/01/02 12:29:05;;;;;;;10.10;4.50;;;22.30;58.50;;;;;;220271;1267;22747;-58
2022/01/02 12:34:19;;;;;;;12.40;4.40;;;22.40;58.10;;;;;;219882;1265;22632;-56
2022/01/02 12:39:28;;;;;;;12.70;4.40;;;22.70;57.70;;;;;;219972;1265;25431;-56
2022/01/02 12:44:35;;;;;;;8.50;4.20;;;22.90;56.80;;;;;;219855;1265;24316;-57
2022/01/02 12:49:43;;;;;;;8.60;4.00;;;23.00;56.20;;;;;;220247;1265;22604;-58
2022/01/02 12:54:54;;;;;;;10.80;4.40;;;23.10;56.00;;;;;;220113;1265;22546;-59
2022/01/02 12:59:59;;;;;;;9.00;4.30;;;23.30;56.60;;;;;;220248;1265;22975;-57
2022/01/02 13:05:04;;;;;;;14.90;4.90;;;23.30;55.30;;;;;;222366;1265;22551;-57
2022/01/02 13:10:13;;;;;;;12.00;4.80;;;23.40;56.20;;;;;;219641;1267;24290;-57
2022/01/02 13:15:18;;;;;;;9.10;5.00;;;23.40;55.00;;;;;;220129;1265;25492;-57
2022/01/02 13:20:49;;;;;;;11.70;5.20;;;23.40;54.80;;;;;;220263;1265;22554;-60
2022/01/02 13:26:21;;;;;;;13.40;6.00;;;23.30;54.20;;;;;;220061;1264;26160;-57
2022/01/02 13:31:25;;;;;;;9.50;6.40;;;23.40;53.70;;;;;;220479;1265;26809;-55
2022/01/02 13:36:32;;;;;;;11.90;6.10;;;23.40;54.00;;;;;;220214;1265;22701;-57
2022/01/02 13:41:55;;;;;;;10.70;6.20;;;23.40;53.50;;;;;;220017;1265;25506;-58
2022/01/02 13:47:17;;;;;;;8.40;5.80;;;23.40;53.50;;;;;;220056;1265;22541;-56
2022/01/02 13:52:22;;;;;;;10.00;6.00;;;23.40;53.50;;;;;;220073;1267;25388;-56
2022/01/02 13:57:51;;;;;;;10.20;6.20;;;23.40;52.90;;;;;;219799;1265;22695;-56
2022/01/02 14:03:07;;;;;;;11.90;6.00;;;23.40;53.20;;;;;;219975;1265;25531;-56
2022/01/02 14:08:19;;;;;;;7.70;4.90;;;23.50;53.20;;;;;;220309;1265;26571;-56
2022/01/02 14:14:16;;;;;;;8.80;5.40;;;23.40;53.00;;;;;;220117;1264;25267;-57
2022/01/02 14:19:42;;;;;;;9.10;5.40;;;23.50;53.00;;;;;;220109;1265;22535;-57
2022/01/02 14:24:46;;;;;;;8.60;5.80;;;23.50;52.90;;;;;;220340;1265;22573;-56
2022/01/02 14:30:00;;;;;;;9.10;6.30;;;23.50;52.80;;;;;;220350;1265;22532;-57
2022/01/02 14:35:11;;;;;;;9.00;5.80;;;23.50;52.80;;;;;;220100;1265;23430;-57
2022/01/02 14:40:23;;;;;;;9.00;5.60;;;23.50;52.50;;;;;;220425;1265;24366;-58
2022/01/02 14:45:34;;;;;;;8.50;4.90;;;23.60;52.10;;;;;;220123;1265;25426;-57
2022/01/02 14:50:41;;;;;;;9.90;5.90;;;23.70;52.30;;;;;;220244;1265;22553;-56
2022/01/02 14:55:45;;;;;;;8.20;5.10;;;23.70;52.30;;;;;;220529;1265;22791;-57
2022/01/02 15:01:04;;;;;;;7.00;4.80;;;23.70;52.20;;;;;;220113;1265;24245;-58
2022/01/02 15:06:15;;;;;;;8.10;5.40;;;23.70;52.40;;;;;;220329;1265;22550;-58
2022/01/02 15:11:19;;;;;;;8.80;5.30;;;23.80;51.90;;;;;;220120;1265;22556;-55
2022/01/02 15:16:24;;;;;;;10.30;5.40;;;23.70;52.00;;;;;;220376;1265;22541;-58
2022/01/02 15:21:30;;;;;;;9.90;5.30;;;23.70;52.00;;;;;;219702;1265;22574;-56
2022/01/02 15:26:40;;;;;;;10.60;5.30;;;23.80;52.20;;;;;;220106;1265;25200;-58
2022/01/02 15:31:44;;;;;;;7.70;5.20;;;23.80;52.40;;;;;;220120;1265;22563;-57
2022/01/02 15:36:48;;;;;;;11.20;6.00;;;23.80;53.00;;;;;;219968;1265;22870;-57
2022/01/02 15:41:59;;;;;;;10.40;5.40;;;23.90;53.60;;;;;;220223;1265;26188;-59
2022/01/02 15:47:07;;;;;;;10.00;5.30;;;24.00;53.10;;;;;;220229;1265;22557;-57
2022/01/02 15:52:10;;;;;;;9.20;5.20;;;24.10;53.10;;;;;;220069;1265;22553;-56
2022/01/02 15:57:18;;;;;;;9.30;5.20;;;24.10;53.50;;;;;;220255;1265;24384;-59
2022/01/02 16:02:21;;;;;;;9.70;5.40;;;24.10;54.60;;;;;;219959;1265;22560;-56
2022/01/02 16:07:25;;;;;;;11.20;5.10;;;23.90;54.00;;;;;;220156;1267;22564;-55
2022/01/02 16:12:29;;;;;;;10.40;5.60;;;23.90;54.00;;;;;;220223;1265;22576;-55
2022/01/02 16:17:32;;;;;;;13.30;5.70;;;23.80;54.90;;;;;;219980;1265;22612;-57
2022/01/02 16:22:36;;;;;;;7.40;4.90;;;23.90;54.70;;;;;;219890;1265;25485;-58
2022/01/02 16:27:39;;;;;;;9.60;5.50;;;23.80;54.60;;;;;;220203;1265;24316;-57
2022/01/02 16:32:43;;;;;;;9.60;5.60;;;23.70;54.70;;;;;;220005;1265;26728;-56
2022/01/02 16:37:47;;;;;;;8.70;5.20;;;23.60;55.20;;;;;;219967;1267;25517;-55
2022/01/02 16:43:02;;;;;;;9.40;5.70;;;23.60;54.80;;;;;;219943;1267;25527;-59
2022/01/02 16:48:09;;;;;;;15.20;5.20;;;23.50;55.30;;;;;;220022;1267;24223;-56
2022/01/02 16:53:16;;;;;;;16.10;5.80;;;23.50;55.70;;;;;;219845;1267;23525;-57
2022/01/02 16:58:28;;;;;;;9.80;5.00;;;23.60;55.30;;;;;;220320;1267;22533;-56
2022/01/02 17:03:37;;;;;;;10.10;5.20;;;23.60;55.40;;;;;;219891;1267;23257;-53
2022/01/02 17:08:43;;;;;;;10.60;5.70;;;23.50;55.00;;;;;;220160;1267;24672;-57
2022/01/02 17:13:50;;;;;;;11.70;5.70;;;23.50;55.60;;;;;;220370;1266;24221;-56
2022/01/02 17:18:56;;;;;;;13.50;5.10;;;23.50;55.60;;;;;;219528;1265;25335;-53
2022/01/02 17:24:00;;;;;;;10.60;5.70;;;23.40;55.00;;;;;;219975;1267;22681;-54
2022/01/02 17:29:04;;;;;;;9.50;5.00;;;23.40;55.20;;;;;;220264;1267;22560;-57
2022/01/02 17:34:09;;;;;;;10.00;5.80;;;23.30;55.40;;;;;;219870;1267;22580;-55
2022/01/02 17:39:13;;;;;;;7.80;5.50;;;23.30;55.20;;;;;;220023;1267;22550;-54
2022/01/02 17:44:17;;;;;;;7.50;4.90;;;23.30;54.80;;;;;;219857;1267;25560;-56
2022/01/02 17:49:24;;;;;;;8.90;5.20;;;23.30;54.80;;;;;;220077;1267;22553;-54
2022/01/02 17:54:32;;;;;;;12.70;5.20;;;23.20;54.70;;;;;;219815;1267;249553;-52
2022/01/02 17:59:36;;;;;;;8.50;4.90;;;23.20;54.60;;;;;;220139;1267;25400;-57
2022/01/02 18:04:43;;;;;;;7.90;5.20;;;23.20;54.80;;;;;;220109;1267;23317;-57
2022/01/02 18:09:58;;;;;;;8.80;4.90;;;23.20;54.60;;;;;;220082;1267;22556;-54
2022/01/02 18:15:16;;;;;;;8.40;4.50;;;23.20;54.60;;;;;;219999;1267;22618;-54
2022/01/02 18:20:26;;;;;;;8.00;4.40;;;23.20;54.70;;;;;;219976;1267;22547;-51
2022/01/02 18:25:56;;;;;;;8.80;4.90;;;23.10;54.50;;;;;;219867;1267;22604;-52
2022/01/02 18:31:25;;;;;;;7.10;4.60;;;23.10;54.20;;;;;;219892;1267;26598;-52
2022/01/02 18:36:34;;;;;;;7.90;4.40;;;23.00;54.70;;;;;;219711;1267;25503;-52
2022/01/02 18:41:43;;;;;;;9.10;4.40;;;23.00;55.10;;;;;;219947;1267;24250;-56
2022/01/02 18:46:58;;;;;;;11.40;4.60;;;23.00;55.70;;;;;;220154;1267;25538;-54
2022/01/02 18:52:18;;;;;;;8.60;4.30;;;22.90;56.70;;;;;;219910;1267;25713;-54
2022/01/02 18:57:28;;;;;;;7.00;4.10;;;22.90;57.20;;;;;;219506;1267;27509;-55
2022/01/02 19:02:36;;;;;;;6.50;4.40;;;22.90;57.70;;;;;;219977;1268;22607;-51
2022/01/02 19:07:40;;;;;;;5.70;3.60;;;22.90;57.50;;;;;;219853;1267;25430;-51
2022/01/02 19:12:45;;;;;;;8.00;4.40;;;22.80;57.70;;;;;;219979;1267;25950;-52
2022/01/02 19:17:51;;;;;;;9.30;4.30;;;22.90;57.00;;;;;;220078;1267;22538;-50
2022/01/02 19:22:57;;;;;;;8.20;4.00;;;22.90;56.70;;;;;;219996;1268;22624;-55
2022/01/02 19:28:06;;;;;;;8.40;4.30;;;22.90;56.20;;;;;;219677;1267;22579;-54
2022/01/02 19:33:15;;;;;;;10.10;4.30;;;22.90;56.20;;;;;;220567;1268;23199;-52
2022/01/02 19:38:24;;;;;;;8.50;3.80;;;22.80;55.90;;;;;;220219;1267;25364;-50
2022/01/02 19:43:30;;;;;;;9.10;4.40;;;22.90;56.50;;;;;;220275;1267;24555;-52
2022/01/02 19:48:37;;;;;;;11.00;4.40;;;22.80;55.90;;;;;;219970;1268;22575;-53
2022/01/02 19:53:46;;;;;;;10.10;3.50;;;22.80;56.90;;;;;;219998;1267;22546;-55
2022/01/02 19:58:50;;;;;;;6.80;3.80;;;22.80;56.60;;;;;;220170;1267;22570;-50
2022/01/02 20:03:54;;;;;;;6.90;3.80;;;22.70;56.60;;;;;;219966;1268;22811;-53
2022/01/02 20:09:02;;;;;;;5.50;3.40;;;22.70;56.50;;;;;;219987;1267;22596;-54
2022/01/02 20:14:07;;;;;;;10.60;3.60;;;22.70;56.50;;;;;;219748;1267;24300;-56
2022/01/02 20:19:14;;;;;;;9.90;3.80;;;22.60;56.20;;;;;;219905;1267;27066;-56
2022/01/02 20:24:19;;;;;;;9.70;3.30;;;22.60;56.40;;;;;;220062;1267;25438;-58
2022/01/02 20:29:25;;;;;;;10.10;3.90;;;22.60;56.30;;;;;;220379;1265;26379;-55
2022/01/02 20:34:47;;;;;;;6.80;3.50;;;22.60;55.90;;;;;;220141;1265;25515;-56
2022/01/02 20:39:57;;;;;;;8.10;4.10;;;22.60;56.40;;;;;;220241;1265;22534;-61
2022/01/02 20:45:02;;;;;;;6.40;3.70;;;22.70;56.00;;;;;;220392;1265;22616;-58
2022/01/02 20:50:11;;;;;;;8.70;3.40;;;22.70;56.30;;;;;;220180;1265;23716;-58
2022/01/02 20:55:17;;;;;;;6.60;3.60;;;22.70;57.00;;;;;;221383;1265;25307;-62
2022/01/02 21:00:27;;;;;;;10.70;3.70;;;22.80;57.00;;;;;;220157;1265;24225;-60
2022/01/02 21:05:32;;;;;;;6.40;3.30;;;22.80;56.60;;;;;;220248;1265;24297;-59
2022/01/02 21:10:45;;;;;;;;;;;;;;;;;;;;;
2022/01/02 21:15:55;;;;;;;6.00;3.40;;;22.60;57.00;;;;;;220510;1267;22607;-54
2022/01/02 21:21:14;;;;;;;7.60;3.00;;;22.60;56.80;;;;;;219941;1267;22540;-50
2022/01/02 21:26:29;;;;;;;6.30;3.50;;;22.50;56.90;;;;;;220619;1265;27396;-51
2022/01/02 21:31:32;;;;;;;6.90;3.50;;;22.50;57.20;;;;;;220734;1265;24241;-54
2022/01/02 21:36:46;;;;;;;7.40;3.30;;;22.40;57.20;;;;;;220683;1265;22566;-54
2022/01/02 21:41:57;;;;;;;6.40;3.20;;;22.40;57.10;;;;;;220384;1265;23423;-51
2022/01/02 21:47:06;;;;;;;6.40;3.30;;;22.40;57.30;;;;;;220570;1268;26606;-52
2022/01/02 21:52:11;;;;;;;6.60;3.50;;;22.40;57.20;;;;;;220553;1267;26687;-52
2022/01/02 21:57:15;;;;;;;9.60;3.60;;;22.30;57.20;;;;;;220668;1265;22603;-52
2022/01/02 22:02:21;;;;;;;9.10;3.40;;;22.30;58.70;;;;;;220580;1265;22839;-54
2022/01/02 22:07:28;;;;;;;7.50;3.50;;;22.50;59.70;;;;;;220374;1267;22537;-52
2022/01/02 22:12:32;;;;;;;7.30;3.10;;;22.80;58.40;;;;;;220668;1265;24413;-52
2022/01/02 22:17:36;;;;;;;8.80;3.60;;;23.20;57.50;;;;;;220810;1265;25139;-53
2022/01/02 22:22:43;;;;;;;8.60;3.50;;;23.40;56.90;;;;;;220446;1265;25406;-54
2022/01/02 22:27:48;;;;;;;12.50;3.40;;;23.40;57.20;;;;;;220746;1267;22556;-55
2022/01/02 22:32:58;;;;;;;7.30;3.30;;;23.50;56.70;;;;;;220774;1265;22536;-53
2022/01/02 22:38:05;;;;;;;5.80;3.20;;;23.60;56.70;;;;;;220710;1265;22703;-53
2022/01/02 22:43:10;;;;;;;7.50;2.90;;;23.60;56.60;;;;;;220373;1265;24565;-50
2022/01/02 22:48:14;;;;;;;7.60;3.20;;;23.70;56.50;;;;;;221043;1265;24120;-53
2022/01/02 22:53:20;;;;;;;9.20;3.60;;;23.70;56.70;;;;;;220639;1267;25535;-54
2022/01/02 22:58:27;;;;;;;6.50;3.60;;;23.80;56.40;;;;;;220522;1267;22535;-53
2022/01/02 23:03:32;;;;;;;5.80;3.00;;;23.80;56.40;;;;;;220636;1265;22560;-52
2022/01/02 23:08:37;;;;;;;7.80;3.30;;;23.80;56.30;;;;;;220599;1267;22597;-53
2022/01/02 23:13:48;;;;;;;6.60;3.20;;;23.80;56.20;;;;;;220537;1265;22560;-53
2022/01/02 23:19:09;;;;;;;8.50;3.30;;;23.70;56.40;;;;;;220580;1268;22620;-54
2022/01/02 23:24:17;;;;;;;14.20;3.20;;;23.80;57.50;;;;;;220583;1265;22656;-50
2022/01/02 23:29:40;;;;;;;9.40;4.10;;;23.80;57.60;;;;;;220191;1265;22916;-53
2022/01/02 23:34:44;;;;;;;10.20;3.40;;;23.80;57.70;;;;;;220298;1268;26792;-52
2022/01/02 23:39:48;;;;;;;11.30;3.30;;;23.80;57.50;;;;;;220656;1265;22795;-53
2022/01/02 23:44:53;;;;;;;7.90;3.20;;;23.70;57.60;;;;;;220421;1265;22576;-51
2022/01/02 23:50:15;;;;;;;9.90;2.80;;;23.70;58.00;;;;;;220653;1266;25263;-51
2022/01/02 23:55:29;;;;;;;6.30;3.00;;;23.60;57.90;;;;;;220623;1267;22654;-53
